Time;durP1;ratioP1;P1;durP2;ratioP2;P2;SDS_P1;SDS_P2;PMS_P1;PMS_P2;Temp;Humidity;BMP_temperature;BMP_pressure;BME280_temperature;BME280_humidity;BME280_pressure;Samples;Min_cycle;Max_cycle;Signal;HPM_P1;HPM_P2
2022/01/29 00:07:56;;;;;;;0.30;0.30;;;9.90;99.90;;;;;;25704589;23;20284;-70
2022/01/29 00:18:01;;;;;;;0.20;0.10;;;10.10;99.90;;;;;;25677581;23;20219;-70
2022/01/29 00:28:05;;;;;;;0.30;0.30;;;10.20;99.90;;;;;;25703429;23;20257;-70
2022/01/29 00:38:10;;;;;;;0.20;0.10;;;10.30;99.90;;;;;;25703029;23;20174;-71
2022/01/29 00:48:14;;;;;;;0.20;0.10;;;10.20;99.90;;;;;;25710397;23;20189;-71
2022/01/29 00:58:19;;;;;;;0.20;0.10;;;10.40;99.90;;;;;;25711589;23;20197;-69
2022/01/29 01:08:23;;;;;;;0.20;0.10;;;10.50;99.90;;;;;;25710256;23;20205;-67
2022/01/29 01:18:28;;;;;;;0.20;0.03;;;10.70;99.90;;;;;;25711035;23;20203;-67
2022/01/29 01:28:32;;;;;;;10.43;4.37;;;10.30;99.90;;;;;;25709841;23;20185;-67
2022/01/29 01:38:42;;;;;;;0.63;0.57;;;10.40;99.90;;;;;;25709774;23;20710;-67
2022/01/29 01:48:48;;;;;;;0.20;0.10;;;10.40;99.90;;;;;;25710277;23;20268;-67
2022/01/29 01:58:56;;;;;;;0.20;0.17;;;10.20;99.90;;;;;;25708688;23;20711;-67
2022/01/29 02:09:01;;;;;;;0.20;0.13;;;10.40;99.90;;;;;;25711436;23;20663;-68
2022/01/29 02:19:06;;;;;;;0.20;0.10;;;10.50;99.90;;;;;;25685042;23;20197;-70
2022/01/29 02:29:11;;;;;;;0.20;0.10;;;10.40;99.90;;;;;;25713177;23;20193;-70
2022/01/29 02:39:17;;;;;;;0.20;0.10;;;10.30;99.90;;;;;;25684511;23;20193;-65
2022/01/29 02:49:26;;;;;;;0.20;0.10;;;10.00;99.90;;;;;;25684230;23;20280;-65
2022/01/29 02:59:29;;;;;;;0.20;0.10;;;9.80;99.90;;;;;;25711860;23;20189;-64
2022/01/29 03:09:35;;;;;;;10.87;10.43;;;9.30;99.90;;;;;;25710531;23;20209;-64
2022/01/29 03:19:38;;;;;;;0.20;0.10;;;9.30;99.90;;;;;;25711855;23;20244;-64
2022/01/29 03:29:43;;;;;;;0.20;0.10;;;9.40;99.90;;;;;;25711863;23;20535;-64
2022/01/29 03:39:47;;;;;;;0.20;0.10;;;9.00;99.90;;;;;;25709218;23;20174;-64
2022/01/29 03:49:52;;;;;;;0.20;0.00;;;8.60;99.90;;;;;;25684473;23;20751;-65
2022/01/29 03:59:56;;;;;;;0.20;0.10;;;8.30;99.90;;;;;;25708924;23;20212;-65
2022/01/29 04:10:02;;;;;;;0.20;0.10;;;8.10;99.90;;;;;;25682299;23;20305;-63
2022/01/29 04:20:07;;;;;;;0.30;0.30;;;8.80;99.90;;;;;;25714624;23;20215;-64
2022/01/29 04:30:23;;;;;;;0.20;0.10;;;9.00;99.90;;;;;;25716911;23;20193;-65
2022/01/29 04:40:27;;;;;;;0.20;0.10;;;9.00;99.90;;;;;;25690824;23;20260;-64
2022/01/29 04:50:32;;;;;;;0.20;0.00;;;9.20;99.90;;;;;;25716803;23;20193;-64
2022/01/29 05:00:36;;;;;;;0.20;0.10;;;9.60;99.90;;;;;;25686457;23;20284;-64
2022/01/29 05:10:42;;;;;;;1.70;1.60;;;9.10;99.90;;;;;;25710951;23;20723;-64
2022/01/29 05:31:08;;;;;;;0.30;0.30;;;9.50;99.90;;;;;;25687957;23;20224;-65
2022/01/29 05:41:12;;;;;;;0.20;0.20;;;9.90;99.90;;;;;;25686102;23;20621;-65
2022/01/29 05:51:17;;;;;;;0.97;0.97;;;9.30;99.90;;;;;;25712776;23;20190;-66
2022/01/29 06:01:21;;;;;;;0.20;0.10;;;9.50;99.90;;;;;;25712015;23;20268;-67
2022/01/29 06:11:26;;;;;;;0.20;0.10;;;10.00;99.90;;;;;;25712151;23;20205;-65
2022/01/29 06:21:30;;;;;;;0.20;0.10;;;10.20;99.90;;;;;;25713707;23;20244;-72
2022/01/29 06:31:35;;;;;;;0.20;0.10;;;9.90;99.90;;;;;;25710128;23;20747;-72
2022/01/29 06:41:39;;;;;;;0.20;0.10;;;9.50;99.90;;;;;;25709734;23;20165;-72
2022/01/29 06:51:46;;;;;;;0.20;0.10;;;9.10;99.90;;;;;;25710888;23;20230;-65
2022/01/29 07:01:49;;;;;;;0.20;0.10;;;8.50;99.90;;;;;;25709835;23;20276;-66
2022/01/29 07:11:58;;;;;;;0.20;0.10;;;8.20;99.90;;;;;;25708514;23;20644;-64
2022/01/29 07:22:02;;;;;;;0.20;0.10;;;7.70;99.90;;;;;;25713308;23;20174;-65
2022/01/29 07:32:08;;;;;;;0.20;0.10;;;7.60;99.90;;;;;;25710661;23;20636;-65
2022/01/29 07:42:12;;;;;;;0.20;0.10;;;7.90;99.90;;;;;;25709558;23;20240;-64
2022/01/29 07:52:17;;;;;;;0.20;0.00;;;7.80;99.90;;;;;;25710593;23;20434;-64
2022/01/29 08:02:21;;;;;;;0.20;0.10;;;7.90;99.90;;;;;;25718116;23;20271;-68
2022/01/29 08:12:27;;;;;;;0.20;0.10;;;8.40;99.90;;;;;;25714340;23;20891;-65
2022/01/29 08:22:31;;;;;;;0.20;0.10;;;9.00;99.90;;;;;;25714830;23;20170;-64
2022/01/29 08:32:41;;;;;;;2.00;1.90;;;10.10;99.90;;;;;;25713850;23;20334;-65
2022/01/29 08:42:45;;;;;;;0.20;0.10;;;10.80;99.90;;;;;;25711684;23;20243;-71
2022/01/29 08:52:50;;;;;;;0.20;0.03;;;11.40;99.90;;;;;;25713094;23;20690;-70
2022/01/29 09:02:54;;;;;;;0.20;0.10;;;11.80;99.90;;;;;;25712356;23;20581;-66
2022/01/29 09:12:59;;;;;;;0.20;0.10;;;12.20;99.90;;;;;;25711997;23;20202;-66
2022/01/29 09:23:03;;;;;;;0.20;0.10;;;13.00;99.90;;;;;;25712148;23;20667;-68
2022/01/29 09:33:08;;;;;;;0.20;0.00;;;13.50;99.90;;;;;;25711800;23;20557;-65
2022/01/29 09:43:12;;;;;;;0.20;0.10;;;13.70;99.90;;;;;;25686664;23;20260;-67
2022/01/29 09:53:18;;;;;;;0.20;0.00;;;14.20;99.90;;;;;;25712216;23;20267;-67
2022/01/29 10:03:22;;;;;;;0.20;0.10;;;14.40;99.90;;;;;;25710047;23;20268;-73
2022/01/29 10:13:29;;;;;;;0.20;0.10;;;14.70;99.90;;;;;;25707273;23;20201;-77
2022/01/29 10:23:33;;;;;;;0.20;0.10;;;15.40;99.90;;;;;;25709743;23;20299;-74
2022/01/29 10:33:41;;;;;;;0.20;0.20;;;15.90;99.90;;;;;;25707688;23;21045;-68
2022/01/29 10:44:13;;;;;;;0.20;0.10;;;16.00;99.90;;;;;;25707248;23;20256;-68
2022/01/29 10:54:20;;;;;;;0.20;0.10;;;16.80;99.90;;;;;;25704166;23;20186;-67
2022/01/29 11:04:27;;;;;;;2.20;2.10;;;17.50;99.90;;;;;;25704880;23;20267;-67
2022/01/29 11:14:33;;;;;;;0.20;0.10;;;18.00;99.90;;;;;;25707020;23;20236;-67
2022/01/29 11:24:39;;;;;;;0.20;0.10;;;17.90;99.90;;;;;;25706400;23;20955;-66
2022/01/29 11:35:07;;;;;;;0.20;0.20;;;18.20;99.90;;;;;;25708160;23;20380;-67
2022/01/29 11:45:36;;;;;;;0.20;0.10;;;18.70;99.90;;;;;;25707427;23;20196;-69
2022/01/29 11:55:45;;;;;;;0.20;0.10;;;19.20;99.90;;;;;;25705603;23;20239;-67
2022/01/29 12:06:13;;;;;;;0.60;0.60;;;19.20;99.90;;;;;;25706116;23;20312;-76
2022/01/29 12:16:51;;;;;;;0.30;0.30;;;19.30;99.90;;;;;;25678176;23;20268;-73
2022/01/29 12:26:56;;;;;;;1.03;0.97;;;20.00;99.90;;;;;;25675220;23;20312;-63
2022/01/29 12:37:13;;;;;;;0.40;0.40;;;20.30;99.90;;;;;;25703028;23;20541;-66
2022/01/29 12:47:25;;;;;;;1.33;1.33;;;20.10;99.90;;;;;;25712176;23;20244;-66
2022/01/29 12:57:44;;;;;;;0.20;0.10;;;20.60;99.90;;;;;;25685501;23;20522;-67
2022/01/29 13:07:49;;;;;;;0.87;0.33;;;20.90;99.90;;;;;;25710634;23;20284;-66
2022/01/29 13:17:55;;;;;;;0.20;0.20;;;20.10;99.90;;;;;;25711625;23;20211;-66
2022/01/29 13:28:07;;;;;;;1.20;1.20;;;20.90;99.90;;;;;;25710248;23;20190;-65
2022/01/29 13:38:17;;;;;;;0.53;0.53;;;21.30;99.90;;;;;;25711125;23;20945;-66
2022/01/29 13:48:24;;;;;;;3.97;3.73;;;21.00;99.90;;;;;;25674493;23;20196;-66
2022/01/29 13:58:54;;;;;;;0.30;0.30;;;20.40;99.90;;;;;;25705933;23;20185;-67
2022/01/29 14:09:30;;;;;;;0.60;0.60;;;21.00;99.90;;;;;;25683119;23;20617;-67
2022/01/29 14:19:40;;;;;;;9.43;5.00;;;21.50;99.90;;;;;;25709852;23;20169;-67
2022/01/29 14:29:45;;;;;;;0.57;0.57;;;21.00;99.90;;;;;;25684261;23;20228;-67
2022/01/29 14:39:58;;;;;;;0.33;0.33;;;22.00;99.90;;;;;;25714884;23;20503;-71
2022/01/29 14:50:03;;;;;;;0.20;0.10;;;21.90;99.90;;;;;;25708808;23;20185;-70
2022/01/29 15:00:10;;;;;;;0.20;0.10;;;21.80;99.90;;;;;;25706500;23;20239;-70
2022/01/29 15:10:14;;;;;;;0.20;0.00;;;21.90;99.90;;;;;;25708465;23;20239;-71
2022/01/29 15:20:19;;;;;;;0.20;0.10;;;21.10;99.90;;;;;;25707836;23;20200;-70
2022/01/29 15:30:23;;;;;;;0.20;0.10;;;21.10;99.90;;;;;;25709695;23;20699;-70
2022/01/29 15:40:28;;;;;;;0.20;0.00;;;21.40;99.90;;;;;;25704220;23;20169;-68
2022/01/29 15:50:32;;;;;;;0.20;0.10;;;20.80;99.90;;;;;;25704698;23;20185;-69
2022/01/29 16:00:39;;;;;;;0.20;0.10;;;19.20;99.90;;;;;;25676909;23;20224;-70
2022/01/29 16:10:43;;;;;;;0.20;0.00;;;18.00;99.90;;;;;;25705606;23;20208;-68
2022/01/29 16:20:49;;;;;;;0.20;0.10;;;17.10;99.90;;;;;;25685932;23;20170;-68
2022/01/29 16:30:53;;;;;;;0.20;0.00;;;17.10;99.90;;;;;;25711842;23;20186;-69
2022/01/29 16:40:58;;;;;;;0.20;0.10;;;16.00;99.90;;;;;;25711159;23;20165;-65
2022/01/29 16:51:02;;;;;;;0.20;0.10;;;15.10;99.90;;;;;;25711782;23;20245;-65
2022/01/29 17:01:07;;;;;;;0.20;0.00;;;14.00;99.90;;;;;;25681788;23;20504;-65
2022/01/29 17:11:11;;;;;;;1.37;1.27;;;13.30;99.90;;;;;;25709961;23;20197;-65
2022/01/29 17:21:16;;;;;;;0.20;0.20;;;12.60;99.90;;;;;;25710711;23;20651;-65
2022/01/29 17:31:20;;;;;;;4.33;3.03;;;11.90;99.90;;;;;;25709276;23;20192;-65
2022/01/29 17:41:25;;;;;;;0.20;0.20;;;11.40;99.90;;;;;;25710382;23;20257;-65
2022/01/29 17:51:29;;;;;;;0.20;0.10;;;11.20;99.90;;;;;;25709231;23;20240;-66
2022/01/29 18:01:34;;;;;;;0.30;0.30;;;10.90;99.90;;;;;;25707811;23;20229;-66
2022/01/29 18:11:38;;;;;;;0.20;0.10;;;10.40;99.90;;;;;;25709437;23;20288;-77
2022/01/29 18:21:43;;;;;;;0.20;0.10;;;10.00;99.90;;;;;;25709729;23;20165;-75
2022/01/29 18:31:47;;;;;;;0.20;0.10;;;10.00;99.90;;;;;;25707313;23;20192;-66
2022/01/29 18:41:53;;;;;;;0.20;0.00;;;9.90;99.90;;;;;;25681912;23;20476;-65
2022/01/29 18:51:56;;;;;;;0.20;0.20;;;9.80;99.90;;;;;;25699540;23;20213;-73
2022/01/29 19:02:02;;;;;;;0.20;0.10;;;9.80;99.90;;;;;;25700868;23;20511;-73
2022/01/29 19:12:06;;;;;;;1.43;1.43;;;9.80;99.90;;;;;;25672921;23;20205;-69
2022/01/29 19:22:11;;;;;;;0.97;0.77;;;9.40;99.90;;;;;;25697870;23;20169;-67
2022/01/29 19:32:15;;;;;;;0.20;0.10;;;9.20;99.90;;;;;;25701583;23;20227;-67
2022/01/29 19:42:21;;;;;;;0.20;0.00;;;8.90;99.90;;;;;;25696258;23;20193;-68
2022/01/29 19:52:25;;;;;;;0.20;0.10;;;8.70;99.90;;;;;;25669830;23;20527;-76
2022/01/29 20:02:30;;;;;;;0.20;0.10;;;8.70;99.90;;;;;;25701456;23;20628;-66
2022/01/29 20:12:36;;;;;;;0.43;0.37;;;8.70;99.90;;;;;;25692599;23;20208;-64
2022/01/29 20:22:41;;;;;;;0.20;0.17;;;8.60;99.90;;;;;;25700417;23;20655;-75
2022/01/29 20:32:45;;;;;;;0.20;0.00;;;8.40;99.90;;;;;;25700631;23;20185;-73
2022/01/29 20:42:51;;;;;;;1.07;1.03;;;8.30;99.90;;;;;;25698758;23;20174;-64
2022/01/29 20:52:54;;;;;;;0.20;0.10;;;8.00;99.90;;;;;;25673060;23;20202;-66
2022/01/29 21:03:01;;;;;;;0.20;0.00;;;8.20;99.90;;;;;;25705749;23;20603;-64
2022/01/29 21:13:05;;;;;;;0.20;0.20;;;8.10;99.90;;;;;;25707326;23;20201;-65
2022/01/29 21:23:10;;;;;;;0.20;0.13;;;7.60;99.90;;;;;;25709147;23;20500;-64
2022/01/29 21:33:14;;;;;;;0.20;0.10;;;7.80;99.90;;;;;;25708348;23;20217;-73
2022/01/29 21:43:19;;;;;;;0.20;0.00;;;7.90;99.90;;;;;;25708519;23;20208;-73
2022/01/29 21:53:23;;;;;;;0.20;0.00;;;7.20;99.90;;;;;;25708177;23;20604;-75
2022/01/29 22:03:28;;;;;;;0.20;0.00;;;7.30;99.90;;;;;;25681847;23;20204;-71
2022/01/29 22:13:32;;;;;;;0.20;0.00;;;7.40;99.90;;;;;;25682398;23;20213;-65
2022/01/29 22:23:39;;;;;;;0.20;0.00;;;7.20;99.90;;;;;;25703255;23;20509;-64
2022/01/29 22:33:43;;;;;;;0.20;0.00;;;6.90;99.90;;;;;;25677814;23;20228;-64
2022/01/29 22:43:49;;;;;;;0.20;0.00;;;7.00;99.90;;;;;;25669311;23;20170;-63
2022/01/29 22:53:53;;;;;;;0.20;0.00;;;6.80;99.90;;;;;;25702269;23;20194;-74
2022/01/29 23:03:59;;;;;;;0.53;0.53;;;7.00;99.90;;;;;;25652011;23;20690;-75
2022/01/29 23:14:07;;;;;;;1.23;1.23;;;6.80;99.90;;;;;;25704486;23;20526;-76
2022/01/29 23:24:13;;;;;;;0.20;0.10;;;6.80;99.90;;;;;;25705031;23;20683;-75
2022/01/29 23:34:22;;;;;;;0.20;0.00;;;6.80;99.90;;;;;;25705360;23;20240;-75
2022/01/29 23:44:41;;;;;;;0.30;0.30;;;6.60;99.90;;;;;;25702799;23;20165;-75
2022/01/29 23:54:45;;;;;;;0.20;0.00;;;6.70;99.90;;;;;;25703314;23;20527;-74
